Time;durP1;ratioP1;P1;durP2;ratioP2;P2;SDS_P1;SDS_P2;PMS_P1;PMS_P2;Temp;Humidity;BMP_temperature;BMP_pressure;BME280_temperature;BME280_humidity;BME280_pressure;Samples;Min_cycle;Max_cycle;Signal;HPM_P1;HPM_P2
2021/09/02 00:00:18;;;;;;;928.45;858.45;;;;;;;10.48;75.80;93823.53;5110827;28;20027;-41
2021/09/02 00:02:43;;;;;;;1004.28;924.75;;;;;;;10.43;75.43;93831.97;5090616;28;20390;-41
2021/09/02 00:05:09;;;;;;;1031.80;945.33;;;;;;;10.60;75.06;93830.28;5090481;28;20078;-41
2021/09/02 00:07:34;;;;;;;974.33;897.20;;;;;;;10.56;74.14;93832.66;5090417;28;20020;-41
2021/09/02 00:10:00;;;;;;;1097.07;997.13;;;;;;;10.52;74.31;93826.72;5090120;28;20024;-41
2021/09/02 00:12:25;;;;;;;1051.05;963.08;;;;;;;10.67;74.36;93834.41;5105360;28;20034;-41
2021/09/02 00:14:51;;;;;;;1084.72;991.92;;;;;;;10.65;74.75;93826.63;5109891;28;20031;-41
2021/09/02 00:17:16;;;;;;;1044.22;961.28;;;;;;;10.58;73.94;93832.09;5109556;28;20031;-41
2021/09/02 00:19:42;;;;;;;1049.35;959.78;;;;;;;10.79;73.70;93832.81;5110155;28;20067;-41
2021/09/02 00:22:07;;;;;;;1014.33;936.35;;;;;;;10.80;72.68;93831.56;5092111;28;20035;-41
2021/09/02 00:24:33;;;;;;;998.47;919.42;;;;;;;10.89;72.17;93833.09;5089895;28;20028;-40
2021/09/02 00:26:58;;;;;;;1019.65;940.90;;;;;;;10.95;72.60;93828.91;5091344;28;20024;-40
2021/09/02 00:29:24;;;;;;;1019.42;939.80;;;;;;;10.99;72.51;93823.75;5105749;28;20404;-40
2021/09/02 00:31:49;;;;;;;1030.53;946.75;;;;;;;10.95;72.70;93826.13;5090168;28;20020;-40
2021/09/02 00:34:15;;;;;;;956.17;885.70;;;;;;;11.08;72.00;93836.34;5090150;28;20493;-40
2021/09/02 00:36:40;;;;;;;990.00;916.40;;;;;;;11.04;72.03;93839.47;5102224;28;20481;-40
2021/09/02 00:39:06;;;;;;;939.13;870.28;;;;;;;10.97;71.78;93839.41;5103793;28;20711;-40
2021/09/02 00:41:31;;;;;;;1000.33;923.85;;;;;;;10.98;72.28;93847.13;5094800;28;20032;-40
2021/09/02 00:43:56;;;;;;;926.00;862.40;;;;;;;11.00;71.40;93844.56;5090014;28;20052;-40
2021/09/02 00:46:22;;;;;;;909.30;845.00;;;;;;;10.89;71.70;93838.63;5102592;28;20432;-40
2021/09/02 00:48:48;;;;;;;971.72;899.83;;;;;;;10.85;72.76;93825.13;5110179;28;20028;-40
2021/09/02 00:51:15;;;;;;;915.05;848.65;;;;;;;10.87;72.51;93833.59;5091657;28;20514;-40
2021/09/02 00:53:41;;;;;;;922.20;857.50;;;;;;;10.80;71.73;93825.28;5089613;28;20024;-40
2021/09/02 00:56:07;;;;;;;974.67;902.30;;;;;;;10.71;72.53;93825.75;5091779;28;20496;-40
2021/09/02 00:58:32;;;;;;;952.50;882.40;;;;;;;10.68;72.94;93831.09;5109854;28;20028;-40
2021/09/02 01:00:58;;;;;;;969.47;897.67;;;;;;;10.64;72.86;93825.16;5109856;28;20023;-40
2021/09/02 01:03:23;;;;;;;950.80;882.42;;;;;;;10.66;72.31;93819.84;5109819;28;20019;-40
2021/09/02 01:05:51;;;;;;;981.30;905.85;;;;;;;10.56;72.70;93807.81;5111188;28;20045;-41
2021/09/02 01:08:18;;;;;;;982.75;906.55;;;;;;;10.40;72.40;93819.97;5113840;28;20031;-41
2021/09/02 01:10:46;;;;;;;982.63;908.30;;;;;;;10.46;72.67;93826.09;5113414;28;20485;-40
2021/09/02 01:13:11;;;;;;;1003.85;929.22;;;;;;;10.49;72.34;93830.56;5113377;28;20501;-40
2021/09/02 01:15:36;;;;;;;967.28;895.33;;;;;;;10.52;71.78;93823.97;5113483;28;20038;-40
2021/09/02 01:18:02;;;;;;;1013.33;937.80;;;;;;;10.51;72.72;93822.47;5113467;28;20028;-40
2021/09/02 01:20:30;;;;;;;952.75;882.50;;;;;;;10.49;72.65;93830.56;5113354;28;20080;-40
2021/09/02 01:22:58;;;;;;;958.13;889.15;;;;;;;10.46;71.85;93826.09;5111769;28;20683;-41
2021/09/02 01:25:26;;;;;;;937.60;871.10;;;;;;;10.38;72.03;93825.31;5113150;28;20475;-41
2021/09/02 01:27:55;;;;;;;969.97;898.50;;;;;;;10.42;71.99;93822.94;5104528;28;20066;-41
2021/09/02 01:30:21;;;;;;;937.90;868.05;;;;;;;10.19;72.26;93801.94;5092668;28;20489;-41
2021/09/02 01:32:48;;;;;;;936.58;869.03;;;;;;;10.36;72.12;93829.88;5092777;28;20035;-40
2021/09/02 01:35:15;;;;;;;964.58;895.30;;;;;;;10.34;72.88;93815.88;5092793;28;20447;-40
2021/09/02 01:37:43;;;;;;;969.22;894.17;;;;;;;10.33;72.64;93817.88;5092891;28;20052;-40
2021/09/02 01:40:13;;;;;;;916.08;851.08;;;;;;;10.31;72.46;93822.50;5092816;28;20032;-40
2021/09/02 01:42:39;;;;;;;931.42;867.45;;;;;;;10.24;72.34;93825.91;5092674;28;20656;-40
2021/09/02 01:45:05;;;;;;;884.25;822.47;;;;;;;10.15;71.75;93812.56;5092295;28;20028;-40
2021/09/02 01:47:30;;;;;;;882.60;820.88;;;;;;;10.15;72.32;93818.09;5092354;28;20572;-40
2021/09/02 01:50:10;;;;;;;900.80;838.15;;;;;;;10.10;71.95;93822.44;5099074;28;20031;-40
2021/09/02 01:52:35;;;;;;;803.90;750.05;;;;;;;10.04;71.55;93819.06;5111324;28;20048;-40
2021/09/02 01:55:02;;;;;;;869.88;810.97;;;;;;;10.02;71.92;93810.59;5094342;28;20036;-41
2021/09/02 01:57:27;;;;;;;824.72;770.90;;;;;;;9.92;71.74;93801.25;5091380;28;20024;-40
2021/09/02 01:59:53;;;;;;;885.58;823.97;;;;;;;9.93;71.86;93809.03;5092408;28;20028;-40
2021/09/02 02:02:18;;;;;;;927.03;859.55;;;;;;;9.96;72.92;93815.50;5092228;28;20020;-40
2021/09/02 02:04:43;;;;;;;917.15;851.28;;;;;;;9.93;72.49;93814.53;5092210;28;20019;-40
2021/09/02 02:07:09;;;;;;;935.97;870.80;;;;;;;9.84;72.47;93817.00;5092228;28;20409;-40
2021/09/02 02:09:34;;;;;;;897.72;837.67;;;;;;;9.83;72.16;93816.25;5092291;28;20039;-40
2021/09/02 02:12:00;;;;;;;869.65;808.13;;;;;;;9.85;71.75;93819.22;5092171;28;20397;-41
2021/09/02 02:14:25;;;;;;;872.30;810.83;;;;;;;9.78;72.18;93819.16;5092127;28;20031;-41
2021/09/02 02:16:51;;;;;;;888.20;825.78;;;;;;;9.78;72.04;93813.63;5091939;28;20032;-41
2021/09/02 02:19:16;;;;;;;893.40;830.45;;;;;;;9.68;72.82;93815.38;5094634;28;20044;-40
2021/09/02 02:21:42;;;;;;;899.78;836.95;;;;;;;9.77;72.09;93823.16;5090197;28;20035;-40
2021/09/02 02:24:07;;;;;;;887.95;827.60;;;;;;;9.75;72.36;93823.72;5090205;28;20074;-40
2021/09/02 02:26:33;;;;;;;880.67;818.78;;;;;;;9.73;72.42;93831.03;5088949;28;20020;-40
2021/09/02 02:28:58;;;;;;;852.13;794.08;;;;;;;9.68;72.38;93821.59;5108120;28;20039;-40
2021/09/02 02:31:24;;;;;;;859.22;801.10;;;;;;;9.66;72.30;93815.13;5111310;28;20110;-40
2021/09/02 02:33:49;;;;;;;900.42;835.85;;;;;;;9.62;72.70;93815.47;5112058;28;20016;-40
2021/09/02 02:36:14;;;;;;;856.95;797.17;;;;;;;9.60;72.44;93815.25;5111679;28;20016;-42
2021/09/02 02:38:40;;;;;;;953.13;882.13;;;;;;;9.56;73.49;93828.63;5111881;28;20041;-39
2021/09/02 02:41:05;;;;;;;872.55;811.78;;;;;;;9.57;72.03;93826.63;5111876;28;20400;-40
2021/09/02 02:43:31;;;;;;;879.45;818.58;;;;;;;9.43;72.48;93830.66;5111834;28;20613;-40
2021/09/02 02:45:58;;;;;;;903.45;838.65;;;;;;;9.45;72.25;93820.59;5111630;28;20027;-39
2021/09/02 02:48:24;;;;;;;836.80;781.05;;;;;;;9.55;71.43;93829.91;5111523;28;20506;-40
2021/09/02 02:50:50;;;;;;;876.78;817.30;;;;;;;9.50;71.80;93821.75;5110412;28;20602;-40
2021/09/02 02:53:15;;;;;;;838.72;783.63;;;;;;;9.45;71.41;93828.13;5111790;28;20024;-40
2021/09/02 02:55:41;;;;;;;895.55;833.60;;;;;;;9.46;72.52;93835.13;5111629;28;20420;-39
2021/09/02 02:58:06;;;;;;;857.70;798.20;;;;;;;9.39;72.30;93833.00;5111389;28;20454;-39
2021/09/02 03:00:32;;;;;;;878.90;818.47;;;;;;;9.40;72.62;93831.75;5111576;28;20492;-39
2021/09/02 03:02:57;;;;;;;895.33;835.08;;;;;;;9.36;72.29;93836.81;5111404;28;20515;-40
2021/09/02 03:05:22;;;;;;;918.22;852.97;;;;;;;9.33;72.91;93835.88;5111404;28;20028;-39
2021/09/02 03:07:48;;;;;;;866.47;807.85;;;;;;;9.36;72.57;93839.56;5111338;28;20034;-39
2021/09/02 03:10:13;;;;;;;835.70;779.47;;;;;;;9.23;72.65;93839.56;5111072;27;20482;-40
2021/09/02 03:12:39;;;;;;;918.30;850.90;;;;;;;9.15;73.31;93839.47;5111443;28;20026;-40
2021/09/02 03:15:06;;;;;;;932.67;865.50;;;;;;;9.20;72.83;93841.41;5111225;28;20020;-39
2021/09/02 03:17:31;;;;;;;867.35;809.38;;;;;;;9.21;72.81;93845.63;5111372;28;20023;-40
2021/09/02 03:19:57;;;;;;;894.80;830.97;;;;;;;9.04;72.79;93843.19;5111332;28;20523;-40
2021/09/02 03:22:22;;;;;;;918.30;850.10;;;;;;;8.82;72.91;93848.34;5111161;28;20443;-40
2021/09/02 03:24:48;;;;;;;915.28;848.30;;;;;;;8.89;73.45;93853.97;5111178;28;20484;-41
2021/09/02 03:27:13;;;;;;;959.45;891.08;;;;;;;9.01;72.87;93847.00;5107284;28;20099;-41
2021/09/02 03:29:38;;;;;;;864.30;806.30;;;;;;;9.10;71.93;93838.31;5088642;28;20035;-41
2021/09/02 03:32:04;;;;;;;834.50;777.78;;;;;;;9.21;71.32;93850.38;5090376;28;20020;-40
2021/09/02 03:34:30;;;;;;;848.10;790.88;;;;;;;9.21;71.99;93844.88;5090463;28;20024;-43
2021/09/02 03:36:55;;;;;;;853.30;796.30;;;;;;;9.00;71.75;93848.28;5090315;28;20077;-44
2021/09/02 03:39:21;;;;;;;823.80;771.00;;;;;;;8.80;72.02;93850.88;5090602;28;20085;-42
2021/09/02 03:41:47;;;;;;;873.85;815.70;;;;;;;8.78;72.54;93851.44;5090326;28;20032;-42
2021/09/02 03:44:12;;;;;;;911.60;850.15;;;;;;;8.70;72.58;93845.06;5089031;28;20038;-41
2021/09/02 03:46:38;;;;;;;900.42;841.67;;;;;;;8.65;72.62;93845.91;5100807;28;20034;-41
2021/09/02 03:49:03;;;;;;;953.75;883.63;;;;;;;8.64;74.18;93846.44;5110776;28;20042;-41
2021/09/02 03:51:29;;;;;;;965.65;895.22;;;;;;;8.57;73.85;93845.03;5096553;28;20151;-41
2021/09/02 03:53:55;;;;;;;952.35;883.40;;;;;;;8.66;73.70;93843.91;5088941;28;20024;-41
2021/09/02 03:56:20;;;;;;;946.72;878.67;;;;;;;8.75;74.00;93844.22;5088645;28;20054;-41
2021/09/02 03:58:45;;;;;;;943.58;874.72;;;;;;;8.61;73.65;93836.47;5089127;28;20024;-41
2021/09/02 04:01:11;;;;;;;978.97;906.35;;;;;;;8.69;74.02;93849.06;5089211;28;20100;-41
2021/09/02 04:03:36;;;;;;;957.05;889.92;;;;;;;8.73;73.46;93851.50;5089052;28;20024;-41
2021/09/02 04:06:02;;;;;;;946.17;880.97;;;;;;;8.39;73.51;93832.06;5089106;28;20441;-42
2021/09/02 04:08:27;;;;;;;962.47;895.15;;;;;;;8.68;72.72;93858.63;5089659;28;20558;-41
2021/09/02 04:10:53;;;;;;;919.85;856.20;;;;;;;8.69;73.08;93851.81;5089992;28;20110;-41
2021/09/02 04:13:18;;;;;;;984.00;912.38;;;;;;;8.67;73.22;93850.88;5090023;28;20106;-41
2021/09/02 04:15:44;;;;;;;915.00;855.08;;;;;;;8.76;72.51;93853.22;5089926;28;20157;-41
2021/09/02 04:18:09;;;;;;;948.55;886.17;;;;;;;8.75;72.20;93854.50;5090032;28;20038;-41
2021/09/02 04:20:35;;;;;;;922.55;860.33;;;;;;;8.75;72.36;93854.50;5090110;28;20028;-41
2021/09/02 04:23:00;;;;;;;917.78;856.03;;;;;;;8.71;72.29;93859.56;5090093;28;20512;-41
2021/09/02 04:25:26;;;;;;;935.92;874.22;;;;;;;8.59;72.79;93869.28;5090174;28;20421;-41
2021/09/02 04:27:51;;;;;;;931.50;869.00;;;;;;;8.68;73.06;93864.13;5098561;28;20420;-41
2021/09/02 04:30:17;;;;;;;912.47;852.40;;;;;;;8.68;72.98;93866.13;5109697;28;20036;-41
2021/09/02 04:32:42;;;;;;;961.20;897.47;;;;;;;8.74;72.84;93864.00;5109183;28;20055;-41
2021/09/02 04:35:09;;;;;;;940.00;874.30;;;;;;;8.74;73.37;93858.50;5110202;28;20020;-41
2021/09/02 04:37:37;;;;;;;916.83;856.15;;;;;;;8.72;72.81;93870.06;5110427;28;20027;-41
2021/09/02 04:40:03;;;;;;;966.25;900.47;;;;;;;8.67;73.79;93873.63;5110567;28;20050;-42
2021/09/02 04:42:28;;;;;;;961.63;895.05;;;;;;;8.74;73.37;93880.53;5107252;28;20028;-41
2021/09/02 04:44:54;;;;;;;921.83;857.00;;;;;;;8.74;73.41;93873.03;5093745;28;20028;-41
2021/09/02 04:47:20;;;;;;;951.85;884.97;;;;;;;8.85;73.08;93883.84;5093679;28;20401;-41
2021/09/02 04:49:45;;;;;;;996.40;923.03;;;;;;;8.97;74.35;93882.38;5093388;28;20481;-41
2021/09/02 04:52:10;;;;;;;982.20;912.70;;;;;;;8.99;74.03;93879.81;5093133;28;20104;-41
2021/09/02 04:54:36;;;;;;;980.20;908.92;;;;;;;9.03;74.23;93883.00;5093721;28;20032;-42
2021/09/02 04:57:01;;;;;;;1019.83;937.58;;;;;;;9.06;74.73;93887.47;5093498;28;20560;-41
2021/09/02 04:59:27;;;;;;;998.38;922.42;;;;;;;9.08;74.77;93890.44;5093654;28;20043;-41
2021/09/02 05:01:52;;;;;;;1046.15;964.35;;;;;;;9.15;75.09;93887.06;5093445;28;20028;-41
2021/09/02 05:04:18;;;;;;;976.88;907.03;;;;;;;9.11;74.91;93896.91;5093196;28;20031;-41
2021/09/02 05:06:43;;;;;;;1063.15;980.53;;;;;;;9.13;74.67;93892.34;5103450;28;20027;-41
2021/09/02 05:09:09;;;;;;;1031.78;950.97;;;;;;;9.11;74.95;93883.13;5113531;28;20057;-41
2021/09/02 05:11:34;;;;;;;1044.78;962.92;;;;;;;9.22;75.26;93893.94;5113203;27;20019;-41
2021/09/02 05:13:59;;;;;;;1044.57;955.47;;;;;;;9.33;75.46;93893.75;5109359;28;20020;-41
2021/09/02 05:16:25;;;;;;;1056.35;971.17;;;;;;;9.32;75.69;93886.00;5108819;28;20023;-41
2021/09/02 05:18:50;;;;;;;1027.70;939.90;;;;;;;9.43;75.68;93897.56;5113387;27;20042;-42
2021/09/02 05:21:16;;;;;;;1083.82;988.25;;;;;;;9.59;76.14;93895.75;5113453;28;20035;-41
2021/09/02 05:23:41;;;;;;;1077.55;987.13;;;;;;;9.64;75.89;93898.38;5113382;28;20024;-41
2021/09/02 05:26:07;;;;;;;1058.72;968.63;;;;;;;9.63;76.19;93893.41;5113072;28;20405;-41
2021/09/02 05:28:32;;;;;;;1072.43;976.58;;;;;;;9.76;76.27;93909.94;5113052;28;20068;-43
2021/09/02 05:30:58;;;;;;;1118.38;999.90;;;;;;;9.86;76.57;93888.91;5103509;28;20394;-41
2021/09/02 05:33:23;;;;;;;1141.22;999.90;;;;;;;9.96;76.81;93889.97;5091585;28;20027;-42
2021/09/02 05:35:48;;;;;;;1139.03;999.90;;;;;;;10.10;76.47;93894.16;5092935;28;20027;-41
2021/09/02 05:38:14;;;;;;;1142.70;999.90;;;;;;;10.20;75.85;93897.25;5095471;28;20027;-41
2021/09/02 05:40:40;;;;;;;1141.38;999.90;;;;;;;10.19;75.51;93884.72;5113250;28;20089;-42
2021/09/02 05:43:06;;;;;;;1122.07;999.90;;;;;;;10.37;75.42;93895.56;5112974;28;20039;-42
2021/09/02 05:45:31;;;;;;;1158.40;999.90;;;;;;;10.54;75.55;93909.00;5113000;28;20040;-41
2021/09/02 05:47:57;;;;;;;1124.43;999.90;;;;;;;10.56;76.35;93893.38;5113159;28;20412;-41
2021/09/02 05:50:22;;;;;;;1182.10;999.90;;;;;;;10.57;76.47;93892.09;5101421;28;20026;-41
2021/09/02 05:52:48;;;;;;;1259.40;999.90;;;;;;;10.72;77.44;93901.81;5091490;28;20051;-42
2021/09/02 05:55:13;;;;;;;1227.15;999.90;;;;;;;10.78;77.70;93899.66;5092519;28;20442;-41
2021/09/02 05:57:42;;;;;;;1244.82;999.90;;;;;;;10.93;77.74;93900.53;5092533;28;20470;-42
2021/09/02 06:00:08;;;;;;;1241.05;999.90;;;;;;;11.05;77.45;93910.00;5092489;28;20143;-42
2021/09/02 06:02:33;;;;;;;1228.43;999.90;;;;;;;11.26;78.33;93907.22;5092260;28;20062;-41
2021/09/02 06:04:59;;;;;;;1224.20;999.90;;;;;;;11.43;77.85;93894.41;5091999;28;20023;-41
2021/09/02 06:07:24;;;;;;;1144.68;999.90;;;;;;;11.62;75.93;93901.72;5104927;28;20106;-42
2021/09/02 06:09:50;;;;;;;1101.18;998.90;;;;;;;11.82;75.27;93898.94;5112353;28;20031;-41
2021/09/02 06:12:15;;;;;;;1108.88;999.40;;;;;;;11.85;75.14;93869.41;5112182;28;20076;-41
2021/09/02 06:14:41;;;;;;;1149.22;999.90;;;;;;;12.05;74.35;93893.50;5112430;28;20051;-41
2021/09/02 06:17:06;;;;;;;1026.30;945.28;;;;;;;12.23;73.09;93898.00;5112302;28;20035;-41
2021/09/02 06:19:31;;;;;;;1099.47;999.22;;;;;;;12.30;73.01;93888.22;5112419;28;20026;-41
2021/09/02 06:21:57;;;;;;;1032.18;948.92;;;;;;;12.43;72.18;93890.84;5108708;28;20031;-41
2021/09/02 06:24:22;;;;;;;1030.65;952.33;;;;;;;12.52;72.29;93887.53;5109473;27;20099;-41
2021/09/02 06:26:48;;;;;;;1152.97;999.90;;;;;;;12.49;73.00;93889.38;5109786;28;20023;-41
2021/09/02 06:29:13;;;;;;;1113.38;999.90;;;;;;;12.61;73.44;93887.00;5109669;28;20517;-41
2021/09/02 06:31:39;;;;;;;1132.18;999.90;;;;;;;12.78;73.79;93887.19;5109747;28;20028;-41
2021/09/02 06:34:04;;;;;;;1080.95;993.70;;;;;;;12.91;72.89;93892.56;5109365;28;20026;-41
2021/09/02 06:36:29;;;;;;;1076.68;989.83;;;;;;;13.10;72.95;93895.03;5089660;28;20117;-42
2021/09/02 06:38:55;;;;;;;1051.43;968.50;;;;;;;13.29;72.42;93890.59;5089178;28;20027;-41
2021/09/02 06:41:20;;;;;;;1034.97;956.67;;;;;;;13.41;72.32;93886.13;5089164;28;20110;-41
2021/09/02 06:43:46;;;;;;;1019.15;942.85;;;;;;;13.64;71.43;93895.13;5089188;28;20093;-41
2021/09/02 06:46:11;;;;;;;972.92;901.97;;;;;;;13.88;70.12;93901.38;5089082;28;20024;-41
2021/09/02 06:48:37;;;;;;;953.55;886.13;;;;;;;14.12;69.57;93898.69;5088750;28;20427;-41
2021/09/02 06:51:02;;;;;;;1203.65;940.17;;;;;;;14.33;68.42;93898.47;5091821;28;20059;-42
2021/09/02 06:53:28;;;;;;;913.20;846.35;;;;;;;14.53;67.43;93897.41;5088929;28;20140;-41
2021/09/02 06:55:53;;;;;;;849.67;786.30;;;;;;;15.05;65.80;93888.00;5088482;28;20032;-42
2021/09/02 06:58:18;;;;;;;892.67;825.03;;;;;;;15.48;63.74;93891.59;5088401;28;20035;-42
2021/09/02 07:00:44;;;;;;;1068.82;953.90;;;;;;;15.14;63.78;93892.22;5088477;28;20032;-41
2021/09/02 07:03:09;;;;;;;884.65;818.63;;;;;;;16.42;62.19;93890.94;5086052;28;20032;-42
2021/09/02 07:05:35;;;;;;;1008.00;921.40;;;;;;;17.97;57.15;93894.53;5088843;28;20500;-42
2021/09/02 07:08:00;;;;;;;1001.38;913.10;;;;;;;18.88;54.26;93884.31;5088813;28;20512;-43
2021/09/02 07:10:26;;;;;;;996.30;909.40;;;;;;;19.26;52.62;93892.56;5088309;28;20093;-42
2021/09/02 07:12:51;;;;;;;1012.80;922.58;;;;;;;19.35;51.87;93889.03;5088544;28;20085;-42
2021/09/02 07:15:17;;;;;;;1007.40;919.05;;;;;;;19.19;51.90;93893.47;5088671;28;20036;-42
2021/09/02 07:17:42;;;;;;;1014.72;928.50;;;;;;;18.95;52.49;93891.78;5088221;28;20032;-42
2021/09/02 07:20:08;;;;;;;1010.47;923.20;;;;;;;18.94;52.17;93887.53;5088254;28;20027;-42
2021/09/02 07:22:34;;;;;;;1003.67;919.63;;;;;;;19.57;50.27;93882.16;5088175;28;20016;-42
2021/09/02 07:24:59;;;;;;;960.88;886.97;;;;;;;20.98;46.51;93885.78;5088360;28;20032;-41
2021/09/02 07:27:25;;;;;;;771.75;722.92;;;;;;;22.42;42.99;93887.41;5092961;28;20066;-42
2021/09/02 07:29:50;;;;;;;748.95;703.83;;;;;;;24.02;39.89;93882.75;5108505;28;20047;-43
2021/09/02 07:32:15;;;;;;;258.42;244.35;;;;;;;25.45;37.28;93890.50;5092480;28;20031;-43
2021/09/02 07:34:41;;;;;;;7.70;6.40;;;;;;;26.82;34.26;93882.34;5088261;28;20019;-42
2021/09/02 07:37:06;;;;;;;1070.32;921.90;;;;;;;28.14;31.56;93882.44;5087968;28;20100;-43
2021/09/02 07:39:32;;;;;;;1150.03;999.90;;;;;;;28.72;30.45;93878.09;5088002;28;20019;-43
2021/09/02 07:53:05;;;;;;;1146.78;999.90;;;;;;;31.73;25.47;93874.41;5105208;27;21203;-44
2021/09/02 07:55:30;;;;;;;1127.43;999.90;;;;;;;32.12;24.44;93862.41;5105218;28;20031;-44
2021/09/02 07:57:56;;;;;;;1109.95;999.90;;;;;;;32.32;24.08;93870.66;5110400;28;20026;-44
2021/09/02 08:00:22;;;;;;;1169.30;999.90;;;;;;;29.71;26.96;93873.41;5124908;27;20508;-43
2021/09/02 08:02:47;;;;;;;1164.88;999.90;;;;;;;27.95;30.26;93875.38;5126353;27;20053;-43
2021/09/02 08:05:13;;;;;;;1155.95;999.90;;;;;;;28.35;30.89;93876.81;5126082;27;20047;-44
2021/09/02 08:07:46;;;;;;;1155.03;999.90;;;;;;;28.18;30.69;93854.91;5126121;27;20023;-43
2021/09/02 08:10:12;;;;;;;1127.00;999.90;;;;;;;28.61;29.44;93867.78;5126023;27;20598;-44
2021/09/02 08:12:37;;;;;;;1141.22;999.90;;;;;;;27.01;31.57;93867.53;5125768;27;20046;-43
2021/09/02 08:15:04;;;;;;;1146.78;999.90;;;;;;;26.86;32.12;93859.84;5119866;27;20023;-43
2021/09/02 08:17:30;;;;;;;1130.55;999.90;;;;;;;27.14;31.51;93859.50;5105220;28;20024;-43
2021/09/02 08:19:55;;;;;;;1138.13;999.90;;;;;;;27.95;29.63;93855.50;5104980;28;20101;-42
2021/09/02 08:22:21;;;;;;;1051.88;940.72;;;;;;;26.96;30.87;93854.56;5104918;28;20036;-43
2021/09/02 08:24:46;;;;;;;1099.65;986.17;;;;;;;27.27;31.75;93853.63;5104737;28;20036;-43
2021/09/02 08:27:11;;;;;;;1095.10;989.38;;;;;;;26.22;32.51;93851.50;5104799;28;20043;-45
2021/09/02 08:29:37;;;;;;;1160.63;999.90;;;;;;;26.78;33.08;93853.84;5105033;28;20038;-43
2021/09/02 08:32:03;;;;;;;1134.80;999.90;;;;;;;27.55;30.67;93837.72;5105196;28;20026;-42
2021/09/02 08:34:28;;;;;;;1133.85;999.90;;;;;;;28.09;30.11;93843.94;5104824;28;20488;-43
2021/09/02 08:36:54;;;;;;;1147.65;999.90;;;;;;;27.47;31.75;93845.19;5105213;28;20081;-43
2021/09/02 08:39:19;;;;;;;1160.07;999.90;;;;;;;28.92;29.92;93848.19;5105249;28;20028;-44
2021/09/02 08:41:45;;;;;;;1142.35;999.90;;;;;;;29.11;28.48;93850.22;5104402;28;20081;-43
2021/09/02 08:44:10;;;;;;;1155.22;999.90;;;;;;;28.39;29.39;93847.84;5101501;28;20034;-43
2021/09/02 08:46:37;;;;;;;1159.82;999.90;;;;;;;25.76;33.05;93841.69;5092969;28;20039;-44
2021/09/02 08:49:05;;;;;;;1141.60;999.90;;;;;;;25.98;33.86;93853.25;5084381;28;20107;-42
2021/09/02 08:51:31;;;;;;;1115.72;999.83;;;;;;;26.59;31.59;93857.31;5083455;28;20051;-43
2021/09/02 08:53:56;;;;;;;1151.75;999.90;;;;;;;25.98;32.96;93859.66;5069394;28;20047;-44
2021/09/02 08:56:22;;;;;;;1147.45;999.90;;;;;;;26.17;33.36;93838.53;5071046;28;20028;-43
2021/09/02 08:58:47;;;;;;;1147.53;999.90;;;;;;;27.67;31.40;93834.59;5070564;28;20028;-44
2021/09/02 09:01:13;;;;;;;1128.80;999.90;;;;;;;29.17;28.82;93835.50;5069498;28;20046;-41
2021/09/02 09:03:38;;;;;;;1153.45;999.90;;;;;;;29.70;27.99;93852.00;5070902;28;20032;-44
2021/09/02 09:06:07;;;;;;;1161.30;999.90;;;;;;;29.92;27.50;93841.28;5091831;28;20024;-43
2021/09/02 09:08:37;;;;;;;1154.15;999.90;;;;;;;30.39;27.32;93835.50;5070617;28;20024;-43
2021/09/02 09:11:25;;;;;;;1156.53;999.90;;;;;;;31.40;25.82;93847.28;5077870;28;20024;-43
2021/09/02 09:14:07;;;;;;;1142.75;999.90;;;;;;;32.27;24.02;93831.97;5085188;28;20404;-44
2021/09/02 09:16:46;;;;;;;1116.18;999.90;;;;;;;33.65;22.65;93837.88;5072582;28;20107;-44
2021/09/02 09:19:54;;;;;;;1110.68;999.90;;;;;;;34.49;21.66;93838.94;5072491;28;20524;-44
2021/09/02 09:22:20;;;;;;;;;;;;;;;34.72;21.43;93837.75;5073315;28;20024;-46
2021/09/02 09:24:54;;;;;;;1112.43;999.90;;;;;;;35.78;20.10;93837.16;5072663;28;20312;-46
2021/09/02 09:27:24;;;;;;;1097.97;999.90;;;;;;;36.45;19.70;93835.34;5078134;28;20039;-45
2021/09/02 09:30:06;;;;;;;1113.38;999.90;;;;;;;36.26;19.21;93842.44;5092823;28;20099;-45
2021/09/02 09:32:50;;;;;;;1131.50;999.90;;;;;;;35.64;19.37;93834.22;5085520;28;20067;-44
2021/09/02 09:35:24;;;;;;;1130.63;999.90;;;;;;;33.58;21.08;93834.22;5088475;28;20512;-45
2021/09/02 09:38:06;;;;;;;1136.45;999.90;;;;;;;30.12;25.45;93830.47;5069210;28;20029;-43
2021/09/02 09:40:32;;;;;;;1155.90;999.90;;;;;;;29.33;28.42;93818.19;5068947;28;20062;-45
2021/09/02 09:43:10;;;;;;;1119.65;999.90;;;;;;;30.99;26.03;93824.88;5068700;28;20040;-44
2021/09/02 09:45:47;;;;;;;1108.63;999.80;;;;;;;31.54;24.72;93829.75;5085598;28;20035;-45
2021/09/02 09:48:39;;;;;;;1105.90;998.67;;;;;;;31.49;23.55;93830.34;5089185;28;20074;-46
2021/09/02 09:51:13;;;;;;;1135.60;999.90;;;;;;;29.83;25.99;93837.50;5083648;28;20761;-45
2021/09/02 09:53:40;;;;;;;1134.85;999.90;;;;;;;28.98;27.87;93836.28;5088379;28;20032;-45
2021/09/02 09:56:06;;;;;;;1162.97;999.90;;;;;;;28.04;29.22;93823.22;5088492;28;20058;-46
2021/09/02 09:58:32;;;;;;;1137.25;999.90;;;;;;;27.21;29.75;93810.88;5088836;28;20424;-46
2021/09/02 10:00:59;;;;;;;1133.28;999.90;;;;;;;26.65;31.35;93829.22;5088228;28;20020;-44
2021/09/02 10:03:25;;;;;;;1146.38;999.90;;;;;;;26.21;31.70;93828.13;5087981;28;20425;-44
2021/09/02 10:05:52;;;;;;;1135.55;999.90;;;;;;;25.97;33.35;93837.63;5087122;28;20032;-44
2021/09/02 10:08:19;;;;;;;1123.90;999.90;;;;;;;25.59;31.01;93833.88;5088081;28;20032;-45
2021/09/02 10:10:47;;;;;;;1112.13;999.90;;;;;;;25.97;30.86;93835.53;5087747;28;20047;-44
2021/09/02 10:13:13;;;;;;;1092.55;995.58;;;;;;;26.99;29.09;93824.19;5088386;28;20032;-46
2021/09/02 10:15:39;;;;;;;1108.05;998.50;;;;;;;27.61;28.32;93826.59;5088180;28;20493;-46
2021/09/02 10:18:05;;;;;;;1108.50;998.47;;;;;;;27.56;28.08;93818.59;5088165;28;20111;-45
2021/09/02 10:20:38;;;;;;;1119.22;999.90;;;;;;;27.08;28.31;93803.28;5087651;28;20024;-45
2021/09/02 10:23:05;;;;;;;1134.13;999.90;;;;;;;26.56;29.77;93830.25;5085423;28;20504;-45
2021/09/02 10:25:31;;;;;;;1124.85;999.90;;;;;;;26.06;30.82;93833.78;5088411;28;20036;-45
2021/09/02 10:28:16;;;;;;;1121.13;999.90;;;;;;;25.40;32.09;93840.78;5087976;28;20055;-45
2021/09/02 10:30:42;;;;;;;1103.63;996.00;;;;;;;24.83;32.36;93833.88;5088181;28;20024;-46
2021/09/02 10:33:30;;;;;;;1095.13;993.35;;;;;;;24.83;31.98;93837.44;5087663;28;20054;-45
2021/09/02 10:35:55;;;;;;;1081.85;985.03;;;;;;;25.46;32.29;93831.88;5087531;28;20633;-44
2021/09/02 10:38:36;;;;;;;1058.43;965.00;;;;;;;25.46;30.62;93818.47;5087253;28;20048;-44
2021/09/02 10:41:02;;;;;;;1066.45;972.70;;;;;;;25.08;30.29;93847.06;5087593;28;20060;-44
2021/09/02 10:43:50;;;;;;;1072.30;977.42;;;;;;;24.39;31.68;93851.47;5087790;28;20062;-47
2021/09/02 10:46:30;;;;;;;1094.85;992.78;;;;;;;23.61;34.19;93826.38;5087744;28;20066;-44
2021/09/02 10:49:11;;;;;;;1086.50;991.15;;;;;;;23.42;34.69;93854.22;5090341;28;20531;-44
2021/09/02 10:51:39;;;;;;;1050.05;958.25;;;;;;;23.02;35.26;93847.16;5087064;28;20094;-44
2021/09/02 10:54:06;;;;;;;1064.72;972.67;;;;;;;22.66;36.06;93825.44;5087019;28;20032;-46
2021/09/02 10:56:56;;;;;;;1070.72;975.75;;;;;;;22.76;37.08;93843.59;5085843;28;20518;-44
2021/09/02 10:59:44;;;;;;;1011.88;927.08;;;;;;;22.64;35.95;93848.56;5087126;28;20397;-43
2021/09/02 11:02:35;;;;;;;1022.83;934.50;;;;;;;22.65;36.50;93852.13;5086571;28;20102;-44
2021/09/02 11:05:05;;;;;;;1000.25;919.60;;;;;;;22.71;34.66;93838.38;5087204;28;20148;-44
2021/09/02 11:07:36;;;;;;;1081.03;986.30;;;;;;;23.16;38.02;93842.25;5087005;28;20093;-43
2021/09/02 11:10:09;;;;;;;1043.38;948.15;;;;;;;23.90;33.92;93839.81;5086331;28;20031;-45